createdAt,value
2018-12-14T00:01:02.791Z,0.65
2018-12-14T00:03:30.368Z,0.66
2018-12-14T00:05:58.059Z,0.71
2018-12-14T00:08:25.648Z,0.61
2018-12-14T00:10:53.222Z,0.89
2018-12-14T00:13:21.057Z,0.63
2018-12-14T00:15:48.703Z,0.62
2018-12-14T00:18:16.292Z,0.81
2018-12-14T00:20:43.946Z,0.81
2018-12-14T00:23:11.522Z,0.88
2018-12-14T00:25:39.101Z,0.95
2018-12-14T00:28:06.810Z,1.01
2018-12-14T00:30:34.385Z,0.96
2018-12-14T00:33:01.988Z,0.91
2018-12-14T00:35:29.654Z,0.91
2018-12-14T00:37:57.238Z,1.01
2018-12-14T00:40:24.809Z,1.07
2018-12-14T00:42:52.434Z,1.02
2018-12-14T00:45:20.013Z,1.01
2018-12-14T00:47:47.585Z,1.00
2018-12-14T00:50:15.364Z,1.30
2018-12-14T00:52:42.948Z,1.32
2018-12-14T00:55:10.641Z,1.62
2018-12-14T00:57:38.436Z,1.40
2018-12-14T01:00:06.330Z,1.10
2018-12-14T01:02:33.913Z,0.83
2018-12-14T01:05:01.833Z,0.75
2018-12-14T01:07:29.408Z,0.81
2018-12-14T01:09:56.998Z,0.68
2018-12-14T01:12:24.722Z,0.67
2018-12-14T01:14:52.318Z,1.59
2018-12-14T01:17:19.885Z,1.43
2018-12-14T01:19:47.706Z,1.03
2018-12-14T01:22:15.318Z,0.72
2018-12-14T01:24:42.888Z,0.47
2018-12-14T01:27:10.688Z,0.49
2018-12-14T01:29:38.321Z,0.56
2018-12-14T01:32:05.866Z,0.59
2018-12-14T01:34:33.512Z,0.44
2018-12-14T01:37:01.102Z,0.63
2018-12-14T01:39:28.675Z,0.75
2018-12-14T01:41:56.450Z,0.77
2018-12-14T01:44:24.042Z,0.88
2018-12-14T01:46:51.608Z,0.73
2018-12-14T01:49:19.263Z,0.50
2018-12-14T01:51:46.853Z,0.28
2018-12-14T01:54:14.429Z,0.14
2018-12-14T01:56:42.037Z,0.08
2018-12-14T01:59:09.644Z,0.15
2018-12-14T02:01:37.220Z,0.26
2018-12-14T02:04:04.859Z,0.37
2018-12-14T02:06:32.429Z,0.51
2018-12-14T02:08:59.993Z,0.48
2018-12-14T02:11:27.637Z,0.56
2018-12-14T02:13:55.217Z,0.63
2018-12-14T02:16:23.608Z,0.49
2018-12-14T02:18:51.213Z,0.52
2018-12-14T02:21:18.795Z,0.56
2018-12-14T02:23:46.357Z,0.51
2018-12-14T02:26:13.977Z,0.69
2018-12-14T02:28:41.552Z,0.67
2018-12-14T02:31:09.130Z,0.55
2018-12-14T02:33:36.945Z,0.51
2018-12-14T02:36:04.522Z,0.50
2018-12-14T02:38:32.106Z,0.54
2018-12-14T02:40:59.838Z,0.51
2018-12-14T02:43:27.465Z,0.58
2018-12-14T02:45:55.022Z,0.51
2018-12-14T02:48:22.805Z,0.51
2018-12-14T02:50:50.364Z,0.50
2018-12-14T02:53:17.921Z,0.48
2018-12-14T02:55:45.523Z,0.52
2018-12-14T02:58:13.085Z,0.55
2018-12-14T03:00:40.667Z,0.48
2018-12-14T03:03:08.296Z,0.51
2018-12-14T03:05:35.893Z,0.62
2018-12-14T03:08:03.468Z,0.78
2018-12-14T03:10:31.274Z,0.82
2018-12-14T03:12:58.843Z,0.74
2018-12-14T03:15:26.425Z,0.76
2018-12-14T03:17:54.276Z,0.81
2018-12-14T03:20:21.848Z,0.91
2018-12-14T03:22:49.441Z,0.92
2018-12-14T03:25:17.221Z,1.16
2018-12-14T03:27:44.788Z,1.27
2018-12-14T03:30:12.398Z,1.16
2018-12-14T03:32:40.203Z,1.06
2018-12-14T03:35:07.870Z,1.13
2018-12-14T03:37:35.453Z,1.05
2018-12-14T03:40:03.125Z,1.10
2018-12-14T03:42:34.192Z,1.33
2018-12-14T03:44:58.343Z,1.26
2018-12-14T03:47:26.276Z,1.26
2018-12-14T03:49:53.840Z,1.11
2018-12-14T03:52:21.400Z,1.14
2018-12-14T03:54:49.369Z,1.31
2018-12-14T03:57:16.950Z,1.21
2018-12-14T03:59:44.525Z,1.17
2018-12-14T04:02:12.354Z,1.09
2018-12-14T04:04:39.916Z,1.18
2018-12-14T04:07:07.489Z,1.23
2018-12-14T04:09:35.153Z,1.31
2018-12-14T04:12:02.721Z,1.33
2018-12-14T04:14:30.288Z,1.30
2018-12-14T04:23:24.256Z,1.44
2018-12-14T04:25:51.842Z,1.42
2018-12-14T04:28:19.596Z,1.46
2018-12-14T04:30:47.351Z,1.51
2018-12-14T04:33:14.995Z,1.71
2018-12-14T04:35:42.586Z,1.85
2018-12-14T04:38:10.211Z,2.10
2018-12-14T04:40:37.773Z,2.15
2018-12-14T04:43:05.388Z,2.11
2018-12-14T04:45:33.040Z,2.13
2018-12-14T04:48:00.617Z,2.20
2018-12-14T04:50:28.210Z,2.15
2018-12-14T04:52:56.117Z,2.10
2018-12-14T04:55:23.681Z,2.12
2018-12-14T04:57:51.250Z,2.09
2018-12-14T05:00:18.913Z,2.03
2018-12-14T05:02:46.481Z,2.05
2018-12-14T05:05:14.117Z,2.06
2018-12-14T05:07:41.869Z,2.00
2018-12-14T05:10:09.479Z,1.89
2018-12-14T05:12:37.338Z,1.91
2018-12-14T05:15:05.165Z,1.94
2018-12-14T05:17:32.764Z,1.97
2018-12-14T05:20:00.328Z,1.90
2018-12-14T05:22:28.356Z,1.91
2018-12-14T05:24:55.924Z,1.97
2018-12-14T05:27:23.561Z,1.99
2018-12-14T05:29:51.217Z,1.96
2018-12-14T05:32:18.805Z,1.94
2018-12-14T05:34:46.364Z,1.95
2018-12-14T05:37:14.014Z,2.00
2018-12-14T05:39:41.581Z,1.94
2018-12-14T05:42:09.153Z,2.02
2018-12-14T05:44:36.961Z,2.07
2018-12-14T05:47:04.528Z,2.09
2018-12-14T05:49:32.098Z,1.99
2018-12-14T05:52:00.056Z,1.81
2018-12-14T05:54:27.628Z,1.89
2018-12-14T05:56:55.276Z,1.88
2018-12-14T05:59:23.138Z,2.40
2018-12-14T06:01:50.729Z,2.22
2018-12-14T06:04:18.293Z,2.05
2018-12-14T06:06:46.221Z,2.00
2018-12-14T06:09:14.859Z,2.04
2018-12-14T06:11:41.489Z,2.07
2018-12-14T06:14:09.515Z,2.10
2018-12-14T06:16:37.081Z,2.42
2018-12-14T06:19:04.645Z,2.28
2018-12-14T06:21:32.400Z,2.24
2018-12-14T06:23:59.965Z,2.39
2018-12-14T06:26:27.546Z,2.36
2018-12-14T06:28:55.162Z,2.27
2018-12-14T06:31:22.732Z,2.40
2018-12-14T06:33:50.305Z,2.21
2018-12-14T06:36:18.064Z,2.38
2018-12-14T06:38:45.618Z,2.40
2018-12-14T06:41:13.181Z,2.40
2018-12-14T06:43:41.049Z,2.42
2018-12-14T06:46:08.621Z,2.40
2018-12-14T06:48:36.264Z,2.26
2018-12-14T06:51:03.972Z,2.20
2018-12-14T06:53:31.546Z,2.29
2018-12-14T06:55:59.117Z,2.52
2018-12-14T06:58:26.718Z,2.86
2018-12-14T07:00:54.309Z,2.91
2018-12-14T07:03:21.894Z,2.86
2018-12-14T07:05:49.525Z,2.78
2018-12-14T07:08:17.087Z,2.98
2018-12-14T07:10:44.645Z,3.13
2018-12-14T07:13:12.405Z,3.27
2018-12-14T07:15:39.996Z,3.04
2018-12-14T07:18:07.598Z,2.90
2018-12-14T07:20:35.354Z,2.87
2018-12-14T07:23:02.916Z,2.78
2018-12-14T07:25:30.506Z,2.83
2018-12-14T07:27:58.229Z,2.80
2018-12-14T07:30:25.808Z,2.78
2018-12-14T07:32:53.384Z,2.84
2018-12-14T07:35:21.120Z,2.98
2018-12-14T07:37:48.673Z,2.85
2018-12-14T07:40:16.252Z,3.11
2018-12-14T07:42:44.006Z,3.12
2018-12-14T07:45:11.576Z,3.15
2018-12-14T07:47:39.223Z,3.22
2018-12-14T07:50:06.974Z,3.43
2018-12-14T07:52:34.549Z,3.54
2018-12-14T07:55:02.129Z,3.42
2018-12-14T07:57:29.959Z,3.60
2018-12-14T07:59:57.525Z,3.66
2018-12-14T08:02:25.086Z,3.64
2018-12-14T08:04:53.038Z,3.90
2018-12-14T08:07:20.614Z,3.87
2018-12-14T08:09:48.197Z,3.78
2018-12-14T08:12:16.031Z,3.86
2018-12-14T08:14:43.609Z,3.65
2018-12-14T08:17:11.181Z,3.84
2018-12-14T08:19:38.913Z,3.60
2018-12-14T08:22:06.483Z,3.50
2018-12-14T08:24:34.053Z,3.41
2018-12-14T08:27:01.900Z,3.39
2018-12-14T08:29:29.467Z,3.83
2018-12-14T08:31:57.038Z,3.86
2018-12-14T08:34:24.885Z,4.13
2018-12-14T08:36:52.465Z,4.04
2018-12-14T08:39:20.029Z,3.83
2018-12-14T08:41:47.870Z,3.42
2018-12-14T08:44:15.436Z,3.37
2018-12-14T08:46:43.005Z,3.51
2018-12-14T08:49:10.953Z,3.55
2018-12-14T08:51:38.521Z,3.76
2018-12-14T08:54:06.088Z,3.87
2018-12-14T08:56:34.049Z,3.98
2018-12-14T08:59:01.764Z,4.02
2018-12-14T09:01:29.333Z,4.11
2018-12-14T09:03:57.136Z,4.03
2018-12-14T09:06:24.722Z,3.95
2018-12-14T09:08:52.293Z,3.86
2018-12-14T09:11:19.897Z,3.89
2018-12-14T09:13:47.971Z,3.86
2018-12-14T09:16:15.101Z,3.85
2018-12-14T09:18:43.102Z,3.63
2018-12-14T09:21:10.709Z,3.58
2018-12-14T09:23:38.269Z,3.70
2018-12-14T09:26:05.914Z,3.28
2018-12-14T09:28:33.536Z,3.26
2018-12-14T09:31:01.130Z,3.36
2018-12-14T09:33:29.061Z,3.50
2018-12-14T09:35:56.629Z,3.49
2018-12-14T09:38:24.218Z,3.58
2018-12-14T09:40:51.934Z,3.68
2018-12-14T09:43:19.510Z,3.72
2018-12-14T09:45:47.089Z,3.85
2018-12-14T09:48:14.724Z,3.96
2018-12-14T09:50:42.297Z,3.90
2018-12-14T09:53:09.932Z,3.75
2018-12-14T09:55:37.703Z,3.80
2018-12-14T09:58:05.273Z,3.85
2018-12-14T10:00:32.837Z,3.76
2018-12-14T10:03:00.585Z,3.68
2018-12-14T10:05:28.194Z,3.90
2018-12-14T10:07:55.768Z,4.07
2018-12-14T10:10:23.571Z,4.10
2018-12-14T10:12:51.142Z,4.09
2018-12-14T10:15:18.725Z,3.94
2018-12-14T10:17:46.555Z,4.06
2018-12-14T10:20:14.145Z,3.97
2018-12-14T10:22:41.729Z,4.05
2018-12-14T10:25:09.341Z,4.10
2018-12-14T10:27:36.916Z,4.04
2018-12-14T10:30:04.576Z,4.00
2018-12-14T10:32:32.205Z,3.96
2018-12-14T10:34:59.769Z,3.98
2018-12-14T10:37:27.574Z,4.05
2018-12-14T10:39:55.379Z,3.84
2018-12-14T10:42:22.974Z,3.76
2018-12-14T10:44:50.589Z,3.68
2018-12-14T10:47:18.196Z,3.74
2018-12-14T10:49:45.801Z,4.04
2018-12-14T10:52:13.437Z,4.08
2018-12-14T10:54:41.168Z,4.25
2018-12-14T10:57:08.737Z,4.25
2018-12-14T10:59:36.337Z,4.15
2018-12-14T11:02:04.014Z,4.09
2018-12-14T11:04:31.580Z,4.23
2018-12-14T11:06:59.158Z,4.27
2018-12-14T11:09:26.777Z,4.40
2018-12-14T11:11:54.356Z,4.26
2018-12-14T11:14:21.921Z,4.16
2018-12-14T11:16:49.842Z,3.99
2018-12-14T11:19:17.477Z,4.18
2018-12-14T11:21:45.049Z,4.23
2018-12-14T11:24:12.926Z,4.25
2018-12-14T11:26:40.529Z,4.05
2018-12-14T11:29:08.104Z,4.41
2018-12-14T11:31:36.121Z,4.60
2018-12-14T11:34:03.706Z,4.77
2018-12-14T11:36:31.276Z,4.89
2018-12-14T11:38:58.909Z,5.13
2018-12-14T11:41:26.581Z,5.01
2018-12-14T11:43:54.153Z,4.96
2018-12-14T11:46:21.789Z,5.14
2018-12-14T11:48:49.369Z,5.23
2018-12-14T11:51:16.943Z,5.13
2018-12-14T11:53:44.597Z,5.25
2018-12-14T11:56:12.173Z,5.26
2018-12-14T11:58:39.737Z,5.41
2018-12-14T12:01:07.390Z,5.71
2018-12-14T12:03:34.965Z,5.42
2018-12-14T12:06:02.542Z,5.46
2018-12-14T12:08:30.331Z,5.57
2018-12-14T12:10:57.918Z,5.18
2018-12-14T12:13:25.497Z,5.39
2018-12-14T12:15:53.415Z,5.61
2018-12-14T12:18:21.045Z,5.49
2018-12-14T12:20:48.604Z,5.41
2018-12-14T12:23:16.297Z,5.30
2018-12-14T12:25:43.869Z,5.56
2018-12-14T12:28:11.432Z,5.35
2018-12-14T12:30:39.288Z,5.24
2018-12-14T12:33:06.861Z,5.18
2018-12-14T12:35:34.432Z,5.12
2018-12-14T12:38:02.168Z,5.12
2018-12-14T12:40:29.789Z,5.08
2018-12-14T12:42:57.361Z,5.29
2018-12-14T12:45:25.501Z,5.24
2018-12-14T12:47:53.067Z,5.17
2018-12-14T12:50:20.633Z,5.49
2018-12-14T12:52:48.260Z,5.36
2018-12-14T12:55:15.836Z,5.19
2018-12-14T12:57:43.565Z,5.27
2018-12-14T13:00:11.259Z,5.17
2018-12-14T13:02:38.825Z,5.04
2018-12-14T13:05:06.459Z,4.98
2018-12-14T13:07:34.200Z,5.15
2018-12-14T13:10:01.823Z,4.99
2018-12-14T13:12:29.398Z,5.09
2018-12-14T13:14:56.997Z,5.11
2018-12-14T13:17:24.573Z,5.02
2018-12-14T13:19:52.149Z,5.03
2018-12-14T13:22:19.972Z,5.17
2018-12-14T13:24:47.545Z,4.87
2018-12-14T13:27:20.196Z,4.82
2018-12-14T13:29:43.054Z,4.87
2018-12-14T13:32:10.631Z,4.82
2018-12-14T13:34:38.196Z,4.83
2018-12-14T13:37:06.007Z,4.84
2018-12-14T13:39:33.579Z,4.73
2018-12-14T13:42:01.185Z,4.66
2018-12-14T13:44:28.853Z,4.68
2018-12-14T13:46:56.435Z,4.82
2018-12-14T13:49:24.032Z,5.02
2018-12-14T13:51:51.681Z,4.88
2018-12-14T13:54:19.261Z,4.92
2018-12-14T13:56:46.834Z,4.66
2018-12-14T13:59:14.461Z,4.58
2018-12-14T14:01:42.038Z,4.80
2018-12-14T14:04:09.605Z,4.83
2018-12-14T14:06:37.789Z,4.66
2018-12-14T14:09:05.444Z,4.57
2018-12-14T14:11:33.024Z,4.59
2018-12-14T14:14:00.850Z,4.61
2018-12-14T14:16:28.424Z,4.73
2018-12-14T14:18:55.996Z,4.44
2018-12-14T14:21:23.693Z,4.39
2018-12-14T14:23:51.277Z,4.32
2018-12-14T14:26:18.856Z,4.33
2018-12-14T14:28:46.814Z,4.47
2018-12-14T14:31:14.389Z,4.17
2018-12-14T14:33:41.960Z,4.12
2018-12-14T14:36:09.556Z,4.17
2018-12-14T14:38:37.141Z,4.18
2018-12-14T14:41:04.720Z,4.36
2018-12-14T14:43:32.581Z,4.58
2018-12-14T14:46:00.148Z,4.20
2018-12-14T14:48:27.716Z,3.90
2018-12-14T14:50:55.467Z,3.97
2018-12-14T14:53:23.038Z,4.14
2018-12-14T14:55:50.616Z,4.10
2018-12-14T14:58:18.253Z,4.12
2018-12-14T15:00:45.837Z,4.12
2018-12-14T15:03:13.446Z,3.79
2018-12-14T15:05:41.184Z,3.77
2018-12-14T15:08:08.767Z,3.73
2018-12-14T15:10:36.346Z,3.82
2018-12-14T15:13:04.074Z,3.80
2018-12-14T15:15:31.644Z,3.55
2018-12-14T15:17:59.243Z,3.54
2018-12-14T15:20:27.002Z,3.58
2018-12-14T15:22:54.565Z,3.67
2018-12-14T15:25:22.156Z,3.47
2018-12-14T15:27:49.989Z,3.49
2018-12-14T15:30:17.585Z,3.46
2018-12-14T15:32:45.153Z,3.46
2018-12-14T15:35:12.974Z,3.48
2018-12-14T15:37:40.565Z,3.54
2018-12-14T15:40:08.216Z,3.54
2018-12-14T15:42:35.957Z,3.57
2018-12-14T15:45:03.626Z,3.40
2018-12-14T15:47:31.201Z,3.55
2018-12-14T15:49:59.032Z,3.63
2018-12-14T15:52:27.991Z,3.71
2018-12-14T15:54:54.235Z,3.84
2018-12-14T15:57:21.878Z,3.49
2018-12-14T15:59:49.477Z,3.45
2018-12-14T16:02:17.064Z,3.38
2018-12-14T16:04:44.917Z,3.26
2018-12-14T16:07:12.512Z,3.41
2018-12-14T16:09:40.109Z,3.51
2018-12-14T16:12:07.968Z,3.47
2018-12-14T16:14:35.541Z,3.44
2018-12-14T16:17:03.355Z,3.32
2018-12-14T16:19:30.993Z,3.27
2018-12-14T16:21:59.497Z,3.23
2018-12-14T16:24:27.098Z,3.20
2018-12-14T16:26:55.039Z,3.09
2018-12-14T16:29:22.621Z,3.09
2018-12-14T16:31:50.194Z,3.34
2018-12-14T16:34:17.948Z,3.27
2018-12-14T16:36:45.536Z,3.18
2018-12-14T16:39:13.128Z,3.13
2018-12-14T16:41:41.000Z,3.11
2018-12-14T16:44:08.600Z,3.09
2018-12-14T16:46:37.892Z,3.24
2018-12-14T16:49:06.444Z,3.32
2018-12-14T16:51:34.061Z,3.31
2018-12-14T16:54:02.616Z,3.25
2018-12-14T16:56:30.899Z,3.34
2018-12-14T16:58:58.565Z,3.44
2018-12-14T17:01:27.078Z,3.57
2018-12-14T17:03:54.782Z,3.38
2018-12-14T17:06:22.356Z,3.20
2018-12-14T17:08:49.945Z,3.30
2018-12-14T17:11:17.812Z,3.32
2018-12-14T17:13:45.416Z,3.11
2018-12-14T17:16:13.013Z,3.14
2018-12-14T17:18:40.874Z,3.22
2018-12-14T17:21:09.667Z,3.38
2018-12-14T17:23:36.161Z,3.44
2018-12-14T17:26:04.118Z,3.39
2018-12-14T17:28:31.716Z,3.18
2018-12-14T17:30:59.873Z,3.13
2018-12-14T17:33:27.802Z,3.14
2018-12-14T17:35:55.780Z,3.21
2018-12-14T17:38:24.169Z,3.14
2018-12-14T17:40:51.926Z,3.07
2018-12-14T17:43:20.282Z,3.08
2018-12-14T17:45:47.892Z,3.05
2018-12-14T17:48:15.799Z,3.09
2018-12-14T17:50:43.388Z,3.00
2018-12-14T17:53:10.974Z,3.41
2018-12-14T17:55:40.413Z,3.22
2018-12-14T17:58:08.009Z,3.20
2018-12-14T18:00:35.608Z,3.38
2018-12-14T18:03:04.306Z,3.30
2018-12-14T18:05:31.892Z,3.32
2018-12-14T18:07:59.508Z,3.34
2018-12-14T18:10:27.266Z,3.33
2018-12-14T18:12:54.869Z,3.21
2018-12-14T18:15:28.639Z,3.15
2018-12-14T18:17:57.194Z,3.01
2018-12-14T18:20:34.567Z,3.01
2018-12-14T18:23:02.393Z,3.08
2018-12-14T18:25:29.813Z,3.14
2018-12-14T18:27:57.804Z,3.04
2018-12-14T18:30:25.393Z,3.09
2018-12-14T18:32:56.040Z,3.08
2018-12-14T18:35:23.961Z,3.10
2018-12-14T18:37:51.561Z,3.16
2018-12-14T18:40:19.698Z,3.07
2018-12-14T18:42:48.294Z,3.01
2018-12-14T18:45:15.888Z,3.24
2018-12-14T18:47:43.496Z,3.21
2018-12-14T18:50:11.589Z,3.39
2018-12-14T18:52:39.195Z,3.37
2018-12-14T18:55:06.829Z,3.35
2018-12-14T18:57:34.675Z,3.17
2018-12-14T19:00:02.299Z,3.32
2018-12-14T19:02:29.875Z,3.44
2018-12-14T19:04:57.643Z,3.35
2018-12-14T19:07:25.228Z,3.29
2018-12-14T19:09:52.832Z,3.19
2018-12-14T19:12:20.697Z,3.21
2018-12-14T19:14:48.289Z,3.09
2018-12-14T19:17:15.877Z,3.17
2018-12-14T19:19:43.714Z,3.13
2018-12-14T19:22:11.322Z,3.22
2018-12-14T19:24:38.904Z,3.12
2018-12-14T19:27:06.550Z,3.10
2018-12-14T19:29:34.145Z,3.08
2018-12-14T19:32:01.727Z,3.25
2018-12-14T19:34:31.544Z,3.60
2018-12-14T19:36:57.324Z,3.55
2018-12-14T19:39:24.937Z,3.56
2018-12-14T19:41:52.745Z,3.58
2018-12-14T19:44:20.349Z,3.67
2018-12-14T19:46:47.924Z,3.67
2018-12-14T19:49:15.940Z,3.75
2018-12-14T19:51:43.574Z,3.72
2018-12-14T19:54:11.162Z,3.68
2018-12-14T20:02:44.193Z,3.36
2018-12-14T20:05:17.039Z,3.33
2018-12-14T20:07:44.826Z,3.35
2018-12-14T20:10:12.426Z,3.30
2018-12-14T20:12:40.010Z,3.40
2018-12-14T20:15:08.104Z,3.37
2018-12-14T20:17:35.685Z,3.28
2018-12-14T20:20:03.332Z,3.27
2018-12-14T20:22:31.087Z,3.41
2018-12-14T20:24:58.661Z,3.31
2018-12-14T20:27:26.234Z,3.48
2018-12-14T20:29:54.075Z,3.41
2018-12-14T20:32:21.692Z,3.54
2018-12-14T20:34:49.293Z,3.57
2018-12-14T20:37:17.162Z,3.58
2018-12-14T20:39:44.745Z,3.62
2018-12-14T20:42:12.317Z,3.55
2018-12-14T20:44:39.957Z,3.63
2018-12-14T20:47:07.553Z,3.64
2018-12-14T20:49:35.150Z,3.43
2018-12-14T20:52:03.068Z,3.54
2018-12-14T20:54:30.643Z,3.71
2018-12-14T20:56:58.226Z,3.80
2018-12-14T20:59:26.154Z,3.74
2018-12-14T21:01:53.787Z,3.54
2018-12-14T21:04:21.369Z,3.45
2018-12-14T21:06:48.972Z,3.40
2018-12-14T21:09:16.549Z,3.49
2018-12-14T21:11:44.133Z,3.63
2018-12-14T21:14:11.989Z,3.77
2018-12-14T21:16:39.577Z,3.87
2018-12-14T21:19:07.153Z,3.79
2018-12-14T21:21:34.805Z,3.82
2018-12-14T21:24:02.401Z,3.80
2018-12-14T21:26:29.976Z,3.72
2018-12-14T21:28:57.893Z,3.57
2018-12-14T21:31:25.516Z,3.47
2018-12-14T21:33:53.085Z,3.52
2018-12-14T21:36:20.912Z,3.44
2018-12-14T21:38:48.500Z,3.51
2018-12-14T21:41:16.085Z,3.62
2018-12-14T21:43:44.070Z,3.55
2018-12-14T21:46:11.649Z,3.63
2018-12-14T21:48:39.217Z,3.48
2018-12-14T21:51:06.862Z,3.40
2018-12-14T21:53:34.457Z,3.44
2018-12-14T21:56:02.036Z,3.74
2018-12-14T21:58:29.672Z,3.77
2018-12-14T22:00:57.252Z,3.74
2018-12-14T22:03:24.850Z,3.78
2018-12-14T22:05:52.594Z,3.79
2018-12-14T22:08:20.165Z,3.79
2018-12-14T22:10:47.740Z,3.74
2018-12-14T22:13:15.593Z,3.65
2018-12-14T22:15:43.169Z,3.81
2018-12-14T22:18:10.750Z,3.55
2018-12-14T22:20:38.649Z,3.64
2018-12-14T22:23:06.228Z,3.64
2018-12-14T22:25:33.801Z,3.63
2018-12-14T22:28:01.558Z,3.68
2018-12-14T22:30:29.129Z,3.68
2018-12-14T22:32:56.749Z,3.61
2018-12-14T22:35:24.558Z,3.66
2018-12-14T22:37:52.123Z,3.59
2018-12-14T22:40:19.703Z,3.53
2018-12-14T22:42:47.532Z,3.53
2018-12-14T22:45:15.108Z,3.62
2018-12-14T22:47:42.680Z,3.77
2018-12-14T22:50:10.628Z,3.68
2018-12-14T22:52:38.194Z,3.69
2018-12-14T22:55:05.805Z,3.52
2018-12-14T22:57:33.625Z,3.53
2018-12-14T23:00:01.296Z,3.38
2018-12-14T23:02:28.864Z,3.41
2018-12-14T23:04:56.478Z,3.38
2018-12-14T23:07:24.047Z,3.52
2018-12-14T23:09:51.713Z,3.75
2018-12-14T23:12:19.583Z,3.76
2018-12-14T23:14:47.170Z,3.56
2018-12-14T23:17:15.681Z,3.54
2018-12-14T23:19:43.589Z,3.75
2018-12-14T23:22:11.157Z,3.78
2018-12-14T23:24:38.718Z,3.67
2018-12-14T23:27:07.604Z,3.56
2018-12-14T23:29:35.176Z,3.42
2018-12-14T23:32:02.784Z,3.57
2018-12-14T23:34:30.421Z,3.53
2018-12-14T23:36:57.993Z,3.41
2018-12-14T23:39:25.562Z,3.45
2018-12-14T23:41:53.460Z,3.51
2018-12-14T23:44:21.022Z,3.53
2018-12-14T23:46:48.997Z,3.51
2018-12-14T23:49:16.617Z,3.51
2018-12-14T23:51:44.205Z,3.64
2018-12-14T23:54:11.770Z,3.74
2018-12-14T23:56:39.645Z,3.79
2018-12-14T23:59:07.212Z,3.98
